Time;durP1;ratioP1;P1;durP2;ratioP2;P2;SDS_P1;SDS_P2;PMS_P1;PMS_P2;Temp;Humidity;BMP_temperature;BMP_pressure;BME280_temperature;BME280_humidity;BME280_pressure;Samples;Min_cycle;Max_cycle;Signal;HPM_P1;HPM_P2
2020/12/03 00:00:44;;;;;;;24.38;16.63;;;6.00;45.10;;;;;;4997971;28;20156;-91
2020/12/03 00:09:53;;;;;;;24.60;17.27;;;5.90;45.60;;;;;;4998196;28;20283;-91
2020/12/03 00:15:41;;;;;;;22.77;15.88;;;6.10;45.80;;;;;;4998459;28;20210;-92
2020/12/03 00:24:51;;;;;;;27.63;16.85;;;6.00;45.50;;;;;;4997233;28;20677;-92
2020/12/03 00:30:38;;;;;;;33.97;18.98;;;6.00;44.80;;;;;;4997152;28;20581;-91
2020/12/03 00:36:26;;;;;;;23.60;17.70;;;6.00;43.90;;;;;;4997396;28;20164;-91
2020/12/03 00:39:11;;;;;;;26.83;15.97;;;6.00;43.50;;;;;;4995839;28;20168;-91
2020/12/03 00:41:37;;;;;;;25.13;16.20;;;6.00;43.30;;;;;;4995519;28;20176;-91
2020/12/03 00:44:03;;;;;;;27.70;18.00;;;6.20;43.40;;;;;;4995380;28;20196;-91
2020/12/03 00:49:51;;;;;;;23.00;16.23;;;6.10;44.30;;;;;;4997154;28;20639;-91
2020/12/03 00:55:39;;;;;;;23.48;16.75;;;6.20;44.50;;;;;;4996980;28;20670;-91
2020/12/03 01:01:26;;;;;;;19.73;15.15;;;6.40;44.70;;;;;;4996523;28;20175;-92
2020/12/03 01:07:14;;;;;;;26.00;17.42;;;6.30;44.60;;;;;;4997283;28;20226;-92
2020/12/03 01:13:03;;;;;;;26.52;16.55;;;6.60;45.00;;;;;;4996330;28;20171;-91
2020/12/03 01:18:51;;;;;;;21.52;15.50;;;6.30;44.90;;;;;;4996612;28;20175;-91
2020/12/03 01:24:45;;;;;;;24.55;17.50;;;6.10;45.00;;;;;;4995849;28;20287;-92
2020/12/03 01:27:11;;;;;;;21.80;16.57;;;6.20;44.30;;;;;;4994963;28;20215;-91
2020/12/03 01:30:13;;;;;;;25.60;17.30;;;5.90;44.40;;;;;;4995726;28;20779;-91
2020/12/03 01:32:39;;;;;;;27.00;17.08;;;6.10;44.60;;;;;;4994865;28;20403;-91
2020/12/03 01:35:07;;;;;;;22.65;17.20;;;6.10;43.30;;;;;;4995178;28;20168;-91
2020/12/03 01:40:54;;;;;;;29.08;18.35;;;5.90;44.00;;;;;;5000175;28;20158;-92
2020/12/03 01:43:58;;;;;;;29.60;20.43;;;5.90;43.80;;;;;;4998521;28;20228;-92
2020/12/03 01:46:24;;;;;;;26.00;17.45;;;5.70;45.00;;;;;;4998094;28;20211;-91
2020/12/03 01:55:19;;;;;;;31.70;19.55;;;5.30;46.80;;;;;;4999563;28;20252;-92
2020/12/03 02:01:08;;;;;;;23.67;18.15;;;5.20;47.30;;;;;;4999659;28;20550;-91
2020/12/03 02:07:03;;;;;;;30.80;22.00;;;5.00;47.50;;;;;;5000215;28;20215;-92
2020/12/03 02:12:52;;;;;;;26.33;19.25;;;4.80;47.80;;;;;;5000579;28;20192;-91
2020/12/03 02:18:43;;;;;;;32.42;21.90;;;4.90;48.00;;;;;;5000032;28;20160;-91
2020/12/03 02:28:07;;;;;;;28.23;20.02;;;4.70;49.40;;;;;;4999478;28;20159;-91
2020/12/03 02:31:18;;;;;;;27.97;20.87;;;4.90;49.60;;;;;;4998335;28;20646;-91
2020/12/03 02:33:44;;;;;;;32.47;23.38;;;4.50;49.70;;;;;;4998197;28;20632;-94
2020/12/03 02:36:13;;;;;;;29.73;21.33;;;4.20;49.40;;;;;;4998474;28;20203;-93
2020/12/03 02:42:03;;;;;;;31.35;22.15;;;4.80;49.10;;;;;;4998311;28;20168;-93
2020/12/03 02:44:44;;;;;;;30.27;20.90;;;4.70;49.00;;;;;;4997882;28;20196;-92
2020/12/03 02:47:14;;;;;;;28.90;20.73;;;4.60;48.60;;;;;;4997393;28;20160;-92
2020/12/03 02:49:42;;;;;;;27.33;19.27;;;4.90;49.70;;;;;;4997181;28;20164;-92
2020/12/03 02:55:30;;;;;;;27.30;17.90;;;4.60;49.40;;;;;;4998805;28;20180;-92
2020/12/03 03:01:18;;;;;;;35.13;24.15;;;4.80;49.40;;;;;;4998285;28;20163;-92
2020/12/03 03:07:06;;;;;;;31.90;21.75;;;4.50;49.50;;;;;;4999235;28;20164;-92
2020/12/03 03:12:53;;;;;;;30.58;19.85;;;4.50;49.70;;;;;;4999317;28;20380;-92
2020/12/03 03:18:41;;;;;;;29.27;21.20;;;4.50;49.80;;;;;;5008393;28;20156;-92
2020/12/03 03:27:51;;;;;;;30.70;22.35;;;4.90;48.90;;;;;;4998979;28;20204;-93
2020/12/03 03:30:17;;;;;;;29.83;20.50;;;4.70;48.00;;;;;;4997901;28;20603;-94
2020/12/03 03:32:45;;;;;;;31.98;20.95;;;5.10;47.90;;;;;;4996472;28;20173;-95
2020/12/03 03:35:10;;;;;;;31.85;22.80;;;4.60;47.20;;;;;;4996288;28;20173;-95
2020/12/03 03:37:36;;;;;;;29.13;21.30;;;5.20;47.20;;;;;;4996821;28;20514;-94
2020/12/03 03:40:05;;;;;;;30.10;20.23;;;5.70;47.90;;;;;;4996722;28;20169;-94
2020/12/03 03:42:31;;;;;;;31.45;20.67;;;4.70;47.10;;;;;;4996518;28;20673;-93
2020/12/03 03:44:57;;;;;;;32.40;21.05;;;5.10;47.50;;;;;;4996513;28;20196;-93
2020/12/03 03:47:25;;;;;;;32.23;19.13;;;5.30;47.50;;;;;;4997337;28;20210;-94
2020/12/03 03:49:50;;;;;;;30.88;20.20;;;5.50;47.00;;;;;;4996896;28;20192;-91
2020/12/03 03:52:16;;;;;;;27.70;19.50;;;5.50;46.40;;;;;;4997112;28;20219;-94
2020/12/03 03:54:42;;;;;;;28.90;19.63;;;5.50;46.50;;;;;;4995958;28;20164;-92
2020/12/03 03:57:08;;;;;;;25.40;17.43;;;5.70;45.90;;;;;;4996881;28;20206;-92
2020/12/03 03:59:33;;;;;;;28.73;18.40;;;5.80;45.60;;;;;;4996637;28;20269;-91
2020/12/03 04:01:59;;;;;;;24.57;19.27;;;5.90;45.40;;;;;;4995398;28;20176;-92
2020/12/03 04:04:25;;;;;;;31.00;22.00;;;6.00;45.20;;;;;;4996511;28;20670;-92
2020/12/03 04:06:50;;;;;;;39.83;25.23;;;6.00;45.40;;;;;;4996849;28;20188;-92
2020/12/03 04:09:39;;;;;;;30.33;20.37;;;6.00;45.30;;;;;;4996408;28;20165;-92
2020/12/03 04:12:05;;;;;;;28.20;20.73;;;5.90;45.70;;;;;;4996599;28;20679;-92
2020/12/03 04:14:31;;;;;;;27.13;19.40;;;5.80;44.70;;;;;;4996965;28;20207;-92
2020/12/03 04:16:59;;;;;;;30.63;20.63;;;5.30;45.10;;;;;;4996291;28;20168;-92
2020/12/03 04:19:24;;;;;;;31.08;19.85;;;5.80;45.80;;;;;;4996547;28;20411;-91
2020/12/03 04:21:50;;;;;;;22.60;16.57;;;5.60;46.00;;;;;;4996059;28;20172;-91
2020/12/03 04:24:16;;;;;;;28.60;20.00;;;6.10;46.30;;;;;;4996109;28;20363;-92
2020/12/03 04:26:45;;;;;;;32.40;21.40;;;6.40;46.60;;;;;;4996351;28;20408;-89
2020/12/03 04:29:14;;;;;;;24.63;16.63;;;5.70;45.30;;;;;;4996218;28;20161;-93
2020/12/03 04:31:41;;;;;;;29.02;18.33;;;5.90;45.40;;;;;;4996399;28;20156;-91
2020/12/03 04:34:06;;;;;;;27.63;19.42;;;5.80;44.60;;;;;;4980322;28;20223;-90
2020/12/03 04:36:32;;;;;;;23.50;18.17;;;6.20;45.10;;;;;;4996597;28;20165;-91
2020/12/03 04:38:58;;;;;;;24.53;18.70;;;6.10;44.40;;;;;;4995861;28;20165;-90
2020/12/03 04:41:32;;;;;;;30.03;20.97;;;6.00;44.30;;;;;;4996679;28;20168;-95
2020/12/03 04:44:05;;;;;;;26.83;19.33;;;6.30;44.40;;;;;;4996355;28;20164;-95
2020/12/03 05:07:28;;;;;;;31.85;21.30;;;5.80;45.80;;;;;;4978143;28;20643;-92
2020/12/03 05:10:30;;;;;;;25.42;19.10;;;5.70;46.00;;;;;;4976920;28;20673;-93
2020/12/03 05:12:56;;;;;;;26.90;19.33;;;5.40;46.90;;;;;;4976081;28;20258;-93
2020/12/03 05:15:30;;;;;;;26.53;18.90;;;5.60;46.90;;;;;;4979600;28;20169;-92
2020/12/03 05:18:24;;;;;;;25.88;19.55;;;5.10;46.70;;;;;;4980831;28;20165;-92
2020/12/03 05:21:01;;;;;;;26.52;18.75;;;5.70;46.20;;;;;;4980060;28;20227;-92
2020/12/03 05:23:35;;;;;;;30.27;19.52;;;5.70;46.00;;;;;;4979964;28;20232;-92
2020/12/03 05:26:03;;;;;;;27.90;19.63;;;6.00;46.10;;;;;;4979631;28;20197;-91
2020/12/03 05:28:31;;;;;;;28.98;18.40;;;5.90;45.90;;;;;;4996187;28;20228;-91
2020/12/03 05:31:23;;;;;;;32.70;21.60;;;5.80;46.00;;;;;;4979756;28;20160;-92
2020/12/03 05:33:50;;;;;;;28.90;19.38;;;5.90;46.50;;;;;;4980411;28;20174;-92
2020/12/03 05:36:34;;;;;;;27.95;18.50;;;5.40;45.20;;;;;;4979908;28;20671;-90
2020/12/03 05:39:05;;;;;;;26.33;20.48;;;6.00;46.20;;;;;;4979748;28;20414;-90
2020/12/03 05:41:35;;;;;;;27.25;20.05;;;6.20;45.80;;;;;;4979910;28;20512;-92
2020/12/03 05:44:05;;;;;;;30.67;20.05;;;5.70;45.00;;;;;;4978768;28;20165;-85
2020/12/03 05:46:33;;;;;;;26.90;18.10;;;6.20;45.20;;;;;;4982203;28;20185;-92
2020/12/03 05:49:03;;;;;;;25.27;19.58;;;5.80;44.70;;;;;;4982283;28;20169;-92
2020/12/03 05:51:33;;;;;;;31.00;24.75;;;5.90;45.50;;;;;;4979919;28;20422;-93
2020/12/03 05:54:06;;;;;;;28.40;19.95;;;6.00;45.50;;;;;;4980581;28;20405;-94
2020/12/03 05:56:32;;;;;;;28.43;23.03;;;6.30;46.30;;;;;;4979114;28;20501;-92
2020/12/03 05:59:30;;;;;;;25.60;20.13;;;6.40;46.30;;;;;;4980343;28;20415;-90
2020/12/03 06:02:29;;;;;;;36.65;31.10;;;5.70;45.20;;;;;;4946301;28;20212;-91
2020/12/03 06:05:32;;;;;;;30.42;22.25;;;6.10;46.60;;;;;;4979140;28;20204;-92
2020/12/03 06:08:17;;;;;;;29.20;21.88;;;6.00;47.20;;;;;;4964425;28;20651;-94
2020/12/03 06:10:49;;;;;;;26.67;19.05;;;5.80;47.10;;;;;;4962017;28;20629;-90
2020/12/03 06:13:48;;;;;;;27.45;19.10;;;6.00;47.50;;;;;;4965624;28;20168;-89
2020/12/03 06:16:28;;;;;;;28.73;19.13;;;6.00;47.30;;;;;;4966609;28;20173;-90
2020/12/03 06:19:12;;;;;;;25.35;18.80;;;6.20;47.20;;;;;;4977681;28;20168;-90
2020/12/03 06:21:53;;;;;;;25.67;21.73;;;6.10;47.00;;;;;;4971335;28;20271;-91
2020/12/03 06:24:23;;;;;;;24.50;18.80;;;6.00;47.20;;;;;;4968368;28;20206;-91
2020/12/03 06:27:08;;;;;;;25.38;17.48;;;6.30;46.80;;;;;;4968603;28;20192;-91
2020/12/03 06:33:14;;;;;;;24.98;17.58;;;6.10;46.90;;;;;;4960418;29;20180;-94
2020/12/03 06:39:41;;;;;;;24.23;16.52;;;6.00;46.90;;;;;;4978624;28;20173;-92
2020/12/03 06:42:26;;;;;;;23.95;17.85;;;6.00;47.10;;;;;;4959177;28;20268;-89
2020/12/03 06:45:22;;;;;;;27.70;19.15;;;6.30;47.40;;;;;;4956438;29;20668;-88
2020/12/03 06:48:19;;;;;;;26.23;19.25;;;6.20;47.20;;;;;;4957272;29;20181;-89
2020/12/03 06:51:15;;;;;;;26.95;19.00;;;6.20;47.00;;;;;;4956421;29;20204;-89
2020/12/03 06:53:59;;;;;;;25.48;19.00;;;6.40;47.10;;;;;;4957433;29;20166;-88
2020/12/03 06:56:44;;;;;;;22.90;17.67;;;6.30;46.70;;;;;;4957399;29;20173;-89
2020/12/03 06:59:28;;;;;;;25.10;17.77;;;6.30;46.80;;;;;;4957174;29;20544;-89
2020/12/03 07:02:25;;;;;;;23.42;16.60;;;6.30;46.60;;;;;;4957225;29;20233;-89
2020/12/03 07:05:15;;;;;;;25.48;18.20;;;6.30;47.00;;;;;;4958358;29;20197;-90
2020/12/03 07:08:02;;;;;;;21.20;15.05;;;6.00;46.50;;;;;;4957293;29;20170;-89
2020/12/03 07:11:00;;;;;;;21.92;16.80;;;6.30;47.00;;;;;;4957344;29;20592;-90
2020/12/03 07:13:44;;;;;;;21.23;16.05;;;6.30;47.10;;;;;;4946942;28;20189;-89
2020/12/03 07:16:20;;;;;;;24.17;18.42;;;6.10;47.10;;;;;;4979516;28;20173;-89
2020/12/03 07:18:49;;;;;;;22.13;16.23;;;6.20;47.20;;;;;;4975944;28;20172;-88
2020/12/03 07:21:58;;;;;;;20.83;16.30;;;6.40;46.40;;;;;;4981217;28;20168;-87
2020/12/03 07:24:30;;;;;;;20.75;14.88;;;6.60;46.60;;;;;;4986049;28;20204;-89
2020/12/03 07:27:14;;;;;;;20.88;15.80;;;6.00;45.40;;;;;;4995313;28;20168;-87
2020/12/03 07:29:58;;;;;;;21.77;17.73;;;6.10;46.00;;;;;;4991171;28;20199;-87
2020/12/03 07:32:57;;;;;;;24.83;17.70;;;5.70;46.00;;;;;;4977705;28;20177;-87
2020/12/03 07:35:35;;;;;;;23.85;18.42;;;6.10;48.00;;;;;;4969216;28;20199;-86
2020/12/03 07:38:10;;;;;;;22.55;18.92;;;6.40;47.70;;;;;;4975630;28;20200;-86
2020/12/03 07:40:37;;;;;;;24.50;20.52;;;6.20;46.60;;;;;;4975843;28;20179;-87
2020/12/03 07:43:17;;;;;;;23.45;20.17;;;6.30;46.70;;;;;;4975594;28;20181;-86
2020/12/03 07:45:48;;;;;;;32.58;28.90;;;6.10;46.70;;;;;;4976881;28;20195;-86
2020/12/03 07:48:44;;;;;;;21.75;18.38;;;6.20;46.50;;;;;;4959225;28;20176;-88
2020/12/03 07:51:13;;;;;;;28.42;23.60;;;6.10;47.40;;;;;;4965905;28;20224;-86
2020/12/03 07:53:39;;;;;;;25.48;19.40;;;6.10;46.90;;;;;;4975172;28;20232;-89
2020/12/03 07:56:32;;;;;;;23.23;17.20;;;6.10;46.90;;;;;;4975169;28;20264;-87
2020/12/03 08:07:04;;;;;;;24.67;17.95;;;6.10;47.50;;;;;;4975927;28;20233;-89
2020/12/03 08:09:46;;;;;;;23.23;16.33;;;6.10;47.40;;;;;;4960972;28;20200;-92
2020/12/03 08:12:19;;;;;;;22.20;15.13;;;6.10;46.10;;;;;;4980094;28;20191;-93
2020/12/03 08:14:45;;;;;;;20.63;14.93;;;6.40;46.70;;;;;;4976048;28;20192;-90
2020/12/03 08:17:19;;;;;;;18.50;14.10;;;6.40;45.70;;;;;;4977173;28;20169;-92
2020/12/03 08:20:10;;;;;;;17.05;13.90;;;5.80;45.30;;;;;;4976350;28;20197;-89
2020/12/03 08:22:41;;;;;;;15.88;13.27;;;6.50;45.80;;;;;;4977305;28;20539;-88
2020/12/03 08:25:16;;;;;;;17.10;13.27;;;6.50;46.40;;;;;;4975866;28;20207;-88
2020/12/03 08:27:42;;;;;;;18.88;14.90;;;6.40;46.30;;;;;;4975556;28;20176;-88
2020/12/03 08:30:47;;;;;;;17.70;13.98;;;6.40;45.30;;;;;;4977312;28;20173;-90
2020/12/03 08:33:20;;;;;;;20.52;15.57;;;6.60;46.20;;;;;;4976111;28;20168;-89
2020/12/03 08:35:51;;;;;;;19.27;13.35;;;6.70;46.40;;;;;;4975523;28;20228;-88
2020/12/03 08:38:55;;;;;;;16.02;12.25;;;6.90;45.90;;;;;;4980338;28;20180;-90
2020/12/03 08:41:27;;;;;;;15.63;12.00;;;6.70;46.20;;;;;;4991896;28;20165;-91
2020/12/03 08:44:01;;;;;;;12.38;11.07;;;6.40;45.10;;;;;;4995369;28;20149;-91
2020/12/03 08:46:40;;;;;;;15.38;12.73;;;6.70;44.90;;;;;;4996245;28;20164;-91
2020/12/03 08:49:18;;;;;;;12.63;10.88;;;7.00;45.00;;;;;;4997342;28;20208;-92
2020/12/03 08:51:57;;;;;;;13.77;11.55;;;6.90;44.50;;;;;;5000672;28;20157;-91
2020/12/03 08:54:31;;;;;;;18.08;12.48;;;7.00;44.10;;;;;;5000834;28;20272;-91
2020/12/03 08:57:08;;;;;;;16.17;12.50;;;7.10;44.10;;;;;;4999311;28;20173;-90
2020/12/03 08:59:57;;;;;;;14.23;11.73;;;7.20;44.10;;;;;;4999712;28;20172;-91
2020/12/03 09:02:25;;;;;;;17.23;13.50;;;7.10;44.40;;;;;;4999390;28;20254;-91
2020/12/03 09:04:57;;;;;;;13.95;12.40;;;6.90;44.90;;;;;;4996424;28;20240;-91
2020/12/03 09:07:30;;;;;;;13.77;10.55;;;7.10;45.00;;;;;;4997835;28;20157;-91
2020/12/03 09:09:58;;;;;;;11.38;10.20;;;6.90;43.40;;;;;;4985490;28;20176;-92
2020/12/03 09:12:28;;;;;;;14.70;11.70;;;6.60;41.80;;;;;;4985894;28;20165;-88
2020/12/03 09:14:59;;;;;;;13.88;11.35;;;6.50;42.20;;;;;;4980279;28;20196;-88
2020/12/03 09:17:28;;;;;;;11.82;10.60;;;6.80;43.20;;;;;;4980133;28;20169;-88
2020/12/03 09:22:23;;;;;;;12.73;10.30;;;6.50;41.80;;;;;;5017637;28;20670;-89
2020/12/03 09:24:50;;;;;;;10.23;8.88;;;7.30;41.20;;;;;;5017083;28;20231;-88
2020/12/03 09:27:17;;;;;;;10.73;9.68;;;7.20;40.50;;;;;;5017568;28;20164;-88
2020/12/03 09:29:50;;;;;;;12.82;11.13;;;7.40;40.20;;;;;;5016155;28;20164;-89
2020/12/03 09:32:20;;;;;;;18.40;13.00;;;7.40;39.20;;;;;;5014549;28;20224;-89
2020/12/03 09:34:49;;;;;;;14.20;11.40;;;7.60;39.70;;;;;;5016401;28;20198;-88
2020/12/03 09:37:15;;;;;;;11.98;9.90;;;7.40;39.40;;;;;;5015979;28;20175;-88
2020/12/03 09:39:41;;;;;;;16.30;10.60;;;7.50;38.70;;;;;;5017788;28;20164;-89
2020/12/03 09:42:13;;;;;;;16.13;13.18;;;7.60;38.20;;;;;;5016742;28;20553;-88
2020/12/03 09:44:42;;;;;;;12.23;10.77;;;7.70;38.20;;;;;;5016177;28;20195;-88
2020/12/03 09:47:14;;;;;;;11.77;10.50;;;7.70;38.20;;;;;;5017314;28;20179;-89
2020/12/03 09:49:44;;;;;;;10.65;9.40;;;7.60;38.10;;;;;;5017352;28;20195;-89
2020/12/03 09:52:11;;;;;;;10.20;9.07;;;7.80;38.30;;;;;;5016975;28;20163;-89
2020/12/03 09:54:38;;;;;;;12.13;10.10;;;7.70;38.30;;;;;;5017353;28;20180;-88
2020/12/03 09:57:07;;;;;;;11.05;9.65;;;7.70;38.20;;;;;;5018402;28;20156;-88
2020/12/03 09:59:33;;;;;;;10.10;8.77;;;8.00;38.00;;;;;;5016749;28;20195;-88
2020/12/03 10:02:13;;;;;;;13.00;11.20;;;7.90;38.20;;;;;;5016511;28;20163;-87
2020/12/03 10:04:57;;;;;;;10.05;8.57;;;7.60;37.40;;;;;;5016526;28;20278;-88
2020/12/03 10:07:55;;;;;;;8.73;7.47;;;7.70;37.60;;;;;;5017087;28;20174;-89
2020/12/03 10:10:43;;;;;;;7.43;5.85;;;7.80;35.80;;;;;;5016479;28;20182;-88
2020/12/03 10:13:42;;;;;;;7.20;6.40;;;7.90;34.70;;;;;;5016595;28;20171;-89
2020/12/03 10:16:21;;;;;;;6.72;6.00;;;7.70;33.40;;;;;;5017478;28;20171;-93
2020/12/03 10:18:50;;;;;;;6.70;5.55;;;7.60;32.90;;;;;;5018830;28;20183;-89
2020/12/03 10:21:41;;;;;;;7.45;6.25;;;8.10;32.20;;;;;;5019565;28;20558;-89
2020/12/03 10:24:06;;;;;;;6.70;5.28;;;8.20;32.20;;;;;;5017266;28;20172;-89
2020/12/03 10:26:50;;;;;;;6.53;5.80;;;8.30;31.90;;;;;;5017268;28;20167;-88
2020/12/03 10:29:28;;;;;;;7.82;6.13;;;8.30;32.20;;;;;;5016822;28;20167;-88
2020/12/03 10:31:54;;;;;;;8.98;6.18;;;8.60;32.70;;;;;;5016647;28;20163;-88
2020/12/03 10:34:20;;;;;;;7.40;6.20;;;8.30;31.00;;;;;;5016355;28;20206;-88
2020/12/03 10:36:55;;;;;;;7.50;6.70;;;8.40;31.00;;;;;;5018395;28;20167;-88
2020/12/03 10:39:27;;;;;;;7.32;6.43;;;8.00;31.10;;;;;;5019346;28;20591;-93
2020/12/03 10:41:53;;;;;;;6.60;5.93;;;7.70;31.30;;;;;;5020677;28;20147;-92
2020/12/03 10:44:24;;;;;;;5.67;4.93;;;7.80;32.30;;;;;;5019309;28;20226;-88
2020/12/03 10:47:00;;;;;;;7.22;5.65;;;8.10;32.80;;;;;;5017097;28;20901;-88
2020/12/03 10:49:27;;;;;;;7.25;6.55;;;8.00;32.70;;;;;;5016808;28;20172;-89
2020/12/03 10:52:01;;;;;;;6.57;5.90;;;8.20;32.50;;;;;;5017416;28;20164;-89
2020/12/03 10:54:28;;;;;;;9.32;7.15;;;8.20;32.40;;;;;;5017324;28;20517;-89
2020/12/03 10:56:54;;;;;;;7.45;6.30;;;8.20;31.40;;;;;;5082010;23;20259;-89
2020/12/03 10:59:30;;;;;;;8.52;5.82;;;7.90;32.50;;;;;;4999940;28;20198;-90
2020/12/03 11:01:57;;;;;;;10.02;7.43;;;7.80;32.70;;;;;;5014403;28;20618;-89
2020/12/03 11:04:25;;;;;;;7.10;5.65;;;7.80;32.50;;;;;;4997820;28;20522;-88
2020/12/03 11:06:51;;;;;;;9.15;6.63;;;7.90;32.60;;;;;;4999758;28;20176;-89
2020/12/03 11:09:19;;;;;;;6.07;5.47;;;7.90;33.10;;;;;;5000357;28;20541;-89
2020/12/03 11:11:49;;;;;;;10.15;7.57;;;7.70;33.10;;;;;;4999287;28;20167;-89
2020/12/03 11:14:16;;;;;;;6.32;5.72;;;7.20;34.60;;;;;;5000687;28;20239;-89
2020/12/03 11:16:54;;;;;;;6.68;6.03;;;7.60;35.00;;;;;;5016763;28;20219;-89
2020/12/03 11:19:27;;;;;;;6.65;5.68;;;7.50;33.70;;;;;;4999374;28;20187;-89
2020/12/03 11:22:31;;;;;;;6.32;5.72;;;7.60;34.10;;;;;;4999222;28;20200;-89
2020/12/03 11:25:10;;;;;;;8.05;6.85;;;7.60;34.80;;;;;;4934647;28;20218;-90
2020/12/03 11:27:37;;;;;;;8.63;7.47;;;7.10;34.90;;;;;;4998535;28;20179;-89
2020/12/03 11:30:16;;;;;;;7.60;5.68;;;7.30;35.30;;;;;;4998973;28;20544;-89
2020/12/03 11:32:46;;;;;;;8.65;7.40;;;7.70;34.90;;;;;;5015578;28;20180;-89
2020/12/03 11:35:37;;;;;;;7.55;6.85;;;7.60;34.10;;;;;;4999197;28;20179;-89
2020/12/03 11:38:04;;;;;;;6.90;6.20;;;7.40;35.00;;;;;;5016459;28;20182;-89
2020/12/03 11:41:15;;;;;;;8.18;6.20;;;7.60;34.70;;;;;;5016538;28;20222;-89
2020/12/03 11:48:58;;;;;;;8.40;6.57;;;7.80;34.70;;;;;;5006112;28;20616;-88
2020/12/03 11:51:38;;;;;;;7.63;6.10;;;7.90;34.20;;;;;;5011053;28;20178;-88
2020/12/03 11:54:06;;;;;;;6.93;5.30;;;8.00;34.00;;;;;;4998854;28;20176;-88
2020/12/03 11:56:34;;;;;;;7.90;6.55;;;8.00;33.50;;;;;;5014191;28;20180;-88
2020/12/03 11:59:33;;;;;;;8.02;5.50;;;8.30;33.10;;;;;;4998921;28;20176;-88
2020/12/03 12:02:02;;;;;;;7.03;6.30;;;8.50;33.30;;;;;;5016708;28;20164;-88
2020/12/03 12:10:02;;;;;;;5.68;4.97;;;8.40;32.00;;;;;;5014721;28;20159;-88
2020/12/03 12:12:30;;;;;;;6.57;5.85;;;8.80;32.40;;;;;;5015353;28;20171;-88
2020/12/03 12:14:56;;;;;;;6.70;4.70;;;8.40;32.20;;;;;;4998116;28;20236;-87
2020/12/03 12:17:22;;;;;;;7.53;5.33;;;8.90;32.40;;;;;;5014961;28;20203;-88
2020/12/03 12:19:53;;;;;;;6.20;5.27;;;8.50;31.40;;;;;;5014773;28;20685;-89
2020/12/03 12:22:18;;;;;;;6.65;5.28;;;8.70;31.70;;;;;;4998402;28;20179;-88
2020/12/03 12:24:46;;;;;;;7.60;5.90;;;9.10;32.10;;;;;;5013790;28;20238;-87
2020/12/03 12:27:12;;;;;;;7.88;6.85;;;9.10;31.90;;;;;;4997856;28;20156;-87
2020/12/03 12:29:38;;;;;;;8.65;6.18;;;8.80;32.10;;;;;;5015396;28;20239;-87
2020/12/03 12:32:05;;;;;;;6.95;6.25;;;8.90;32.20;;;;;;5014549;28;20533;-88
2020/12/03 12:34:32;;;;;;;7.60;6.53;;;9.20;32.50;;;;;;4998309;28;20607;-88
2020/12/03 12:36:59;;;;;;;8.20;7.30;;;9.10;32.00;;;;;;5014049;28;20171;-87
2020/12/03 12:39:26;;;;;;;9.05;7.55;;;9.40;32.20;;;;;;5014248;28;20661;-88
2020/12/03 12:42:06;;;;;;;8.90;7.35;;;8.80;32.80;;;;;;4997825;28;20159;-88
2020/12/03 12:44:33;;;;;;;8.10;7.25;;;9.20;33.10;;;;;;4997732;28;20253;-88
2020/12/03 12:47:00;;;;;;;11.10;8.43;;;9.20;32.60;;;;;;5013789;28;20171;-88
2020/12/03 12:49:27;;;;;;;8.75;7.85;;;9.40;32.90;;;;;;5014081;28;20168;-90
2020/12/03 12:51:53;;;;;;;11.90;9.52;;;9.20;32.30;;;;;;5014189;28;20577;-88
2020/12/03 12:54:21;;;;;;;10.48;8.63;;;9.30;32.80;;;;;;5014392;28;20318;-87
2020/12/03 12:56:47;;;;;;;10.05;7.15;;;8.90;32.40;;;;;;5014134;28;20233;-88
2020/12/03 12:59:16;;;;;;;11.07;8.35;;;9.00;33.20;;;;;;5014170;28;20175;-88
2020/12/03 13:04:20;;;;;;;10.05;7.95;;;9.40;33.30;;;;;;4996636;28;20235;-86
2020/12/03 13:09:46;;;;;;;8.60;6.80;;;9.30;33.20;;;;;;4128057;23;20516;-85
2020/12/03 13:12:12;;;;;;;7.97;6.80;;;9.40;33.40;;;;;;4974055;28;20208;-89
2020/12/03 13:14:38;;;;;;;8.67;7.50;;;9.00;32.80;;;;;;4959866;28;20177;-89
2020/12/03 13:17:03;;;;;;;7.80;7.10;;;9.00;33.00;;;;;;4958871;28;20235;-89
2020/12/03 13:19:29;;;;;;;7.83;7.03;;;9.20;33.00;;;;;;4959225;28;20157;-89
2020/12/03 13:21:57;;;;;;;8.40;7.00;;;8.90;32.90;;;;;;4959414;28;20216;-89
2020/12/03 13:24:24;;;;;;;7.60;6.78;;;9.30;32.80;;;;;;4959342;28;20166;-88
2020/12/03 13:26:50;;;;;;;9.65;8.13;;;9.10;32.30;;;;;;4958599;28;20161;-88
2020/12/03 13:29:15;;;;;;;7.80;6.97;;;9.20;32.50;;;;;;4958484;28;20256;-88
2020/12/03 13:31:45;;;;;;;8.47;7.20;;;9.20;32.50;;;;;;4958746;28;20212;-88
2020/12/03 13:34:11;;;;;;;7.50;6.75;;;9.20;32.90;;;;;;4959043;28;20161;-88
2020/12/03 13:36:37;;;;;;;8.17;7.33;;;9.20;32.50;;;;;;4979952;28;20149;-88
2020/12/03 13:39:03;;;;;;;7.70;7.00;;;9.30;32.70;;;;;;4962568;28;20456;-88
2020/12/03 13:41:29;;;;;;;7.00;6.25;;;9.20;32.30;;;;;;4962440;28;20172;-87
2020/12/03 13:43:54;;;;;;;9.50;8.27;;;9.40;33.10;;;;;;4963013;28;20169;-87
2020/12/03 13:46:20;;;;;;;8.50;7.33;;;9.20;33.30;;;;;;4962060;28;20222;-87
2020/12/03 13:48:48;;;;;;;7.80;6.97;;;9.10;33.40;;;;;;4962207;28;20157;-87
2020/12/03 13:51:14;;;;;;;8.38;7.47;;;9.00;33.20;;;;;;4961878;28;20157;-88
2020/12/03 13:53:41;;;;;;;8.00;6.93;;;9.30;33.00;;;;;;4962040;28;20208;-88
2020/12/03 13:56:07;;;;;;;8.77;7.25;;;9.20;33.10;;;;;;4961884;28;20412;-87
2020/12/03 13:58:33;;;;;;;8.35;7.55;;;9.10;34.50;;;;;;4962410;28;20161;-88
2020/12/03 14:00:58;;;;;;;7.70;6.90;;;8.70;33.90;;;;;;4962549;28;20220;-88
2020/12/03 14:03:24;;;;;;;9.50;7.27;;;9.10;34.00;;;;;;4962882;28;20215;-88
2020/12/03 14:05:50;;;;;;;9.10;7.13;;;9.30;34.00;;;;;;4962266;28;20189;-88
2020/12/03 14:08:15;;;;;;;8.50;7.10;;;8.90;34.10;;;;;;4961761;28;20508;-87
2020/12/03 14:10:42;;;;;;;8.67;7.37;;;9.00;35.40;;;;;;4980378;28;20231;-88
2020/12/03 14:13:08;;;;;;;14.55;9.40;;;8.70;35.70;;;;;;5000175;28;20167;-88
2020/12/03 14:15:34;;;;;;;9.70;8.13;;;8.50;35.50;;;;;;4999762;28;20182;-90
2020/12/03 14:18:00;;;;;;;11.02;8.30;;;8.10;35.60;;;;;;4999190;28;20176;-89
2020/12/03 14:20:26;;;;;;;10.75;8.10;;;8.50;35.90;;;;;;5002123;28;20514;-87
2020/12/03 14:22:52;;;;;;;9.37;8.43;;;8.40;36.20;;;;;;5008482;28;20202;-89
2020/12/03 14:25:17;;;;;;;9.17;8.13;;;8.80;36.70;;;;;;5009857;28;20573;-88
2020/12/03 14:27:49;;;;;;;8.97;7.17;;;8.00;36.50;;;;;;5029609;28;20156;-88
2020/12/03 14:30:29;;;;;;;12.13;8.80;;;8.60;37.50;;;;;;5020296;28;20572;-90
2020/12/03 14:32:56;;;;;;;8.95;7.45;;;8.20;37.00;;;;;;5008316;28;20163;-92
2020/12/03 14:35:34;;;;;;;8.95;7.18;;;7.80;37.10;;;;;;5027913;28;20193;-91
2020/12/03 14:38:00;;;;;;;11.52;9.05;;;8.10;37.60;;;;;;5002257;28;20586;-91
2020/12/03 14:40:33;;;;;;;10.67;8.53;;;8.50;37.50;;;;;;5001088;28;20172;-92
2020/12/03 14:42:58;;;;;;;9.35;8.00;;;8.40;37.60;;;;;;5004605;28;20172;-93
2020/12/03 14:45:32;;;;;;;9.27;8.30;;;8.30;38.00;;;;;;5006969;28;20195;-90
2020/12/03 14:47:58;;;;;;;11.68;9.63;;;8.80;37.50;;;;;;4999863;28;20464;-88
2020/12/03 14:50:42;;;;;;;9.90;7.87;;;8.40;37.10;;;;;;5020893;28;20625;-87
2020/12/03 14:53:08;;;;;;;7.88;7.07;;;8.50;36.70;;;;;;5020976;28;20163;-87
2020/12/03 14:55:47;;;;;;;10.90;8.40;;;8.50;37.00;;;;;;5021296;28;20524;-87
2020/12/03 14:58:16;;;;;;;6.57;5.97;;;8.60;36.40;;;;;;5021086;28;20417;-87
2020/12/03 15:00:59;;;;;;;8.43;6.90;;;8.60;36.00;;;;;;5022285;28;20175;-93
2020/12/03 15:03:24;;;;;;;7.50;6.40;;;8.70;36.20;;;;;;5009964;28;20291;-91
2020/12/03 15:12:41;;;;;;;6.72;5.50;;;9.00;36.30;;;;;;5041181;28;20271;-90
2020/12/03 15:15:08;;;;;;;5.97;5.07;;;8.90;36.10;;;;;;5012287;28;20219;-88
2020/12/03 15:17:35;;;;;;;6.32;3.97;;;8.30;35.60;;;;;;5003858;28;20403;-88
2020/12/03 15:20:07;;;;;;;5.82;5.03;;;8.30;36.10;;;;;;5000443;28;20164;-88
2020/12/03 15:22:32;;;;;;;6.70;5.78;;;8.10;35.70;;;;;;5000732;28;20618;-88
2020/12/03 15:25:04;;;;;;;7.20;5.00;;;8.20;35.90;;;;;;5000022;28;20235;-87
2020/12/03 15:27:30;;;;;;;5.68;5.15;;;8.00;36.00;;;;;;5000046;28;20164;-88
2020/12/03 15:30:04;;;;;;;5.63;5.00;;;7.90;36.40;;;;;;5000467;28;20174;-87
2020/12/03 15:32:30;;;;;;;6.10;4.85;;;7.90;36.80;;;;;;5010528;28;20217;-87
2020/12/03 15:35:04;;;;;;;5.28;4.78;;;7.70;37.50;;;;;;5000381;28;20164;-87
2020/12/03 15:37:29;;;;;;;6.15;5.55;;;7.60;38.00;;;;;;5000056;28;20174;-88
2020/12/03 15:40:09;;;;;;;6.53;5.70;;;7.50;38.10;;;;;;5017594;28;20238;-88
2020/12/03 15:42:35;;;;;;;7.15;6.05;;;7.40;38.30;;;;;;4999826;28;20190;-89
2020/12/03 15:45:22;;;;;;;6.47;5.13;;;7.30;37.90;;;;;;4999708;28;20614;-89
2020/12/03 15:48:33;;;;;;;6.97;6.28;;;7.30;38.20;;;;;;4999981;28;20159;-88
2020/12/03 15:51:04;;;;;;;6.05;5.22;;;7.30;38.20;;;;;;5000306;28;20167;-88
2020/12/03 15:53:50;;;;;;;7.30;5.70;;;7.20;37.80;;;;;;4999905;28;20156;-88
2020/12/03 15:56:16;;;;;;;7.35;5.75;;;7.20;37.80;;;;;;4999649;28;20194;-88
2020/12/03 15:59:17;;;;;;;6.43;5.83;;;7.20;37.90;;;;;;4999348;28;20168;-88
2020/12/03 16:01:48;;;;;;;6.63;5.38;;;7.30;38.20;;;;;;4998789;28;20697;-88